aviador You're here:

KMSP Decoded Metar

MINNEAPOLIS in MN, USA
Report Time2017-06-29 06:53:00
UTC Time2017-06-29 07:13:27
Flight Rules vfr VFR
Wind280° at 09 kt
W.Decomp.*RWY 30: 8.5 kt HW 3.1 kt LCW
RWY 22: 4.5 kt HW 7.8 kt RCW
RWY 35: 3.1 kt HW 8.5 kt LCW
W.Rank280° ranks 11
Current wind is below 280° avg. (9.9)
Visibility9999 m
Phenomena:N/A
Clouds:Overcast 039 Hf
Expected CloudBase > 2,400 ft AGL from Temp-Dew spread
Ceiling3,900 ft
Temp21°C (ISA +8)
Dew Point15°C (69% RH)
AAT19.4°C
QNH1003 hPa
Density Alt2,339 ft
Elevation869 ft
Report Wrong Elevation
Raw Report
METAR KMSP 290653Z 28009KT 10SM OVC039 21/15 A2963 RMK AO2 SLP027 T02060150=

Extra information for KMSP:More info

Metar Taf Metar & Taf Last 4 Metars F.Rules Stats Wind Profile Meteogram Temp Stats Airport Information Weather charts Add Link Nearby VenuesMetar ALERT Operation Metar Decoded Social comments

AIRNAV info for KMSP